createdAt,value
2023-03-05T00:00:00.321Z,49.15
2023-03-05T00:01:34.558Z,48.05
2023-03-05T00:03:07.730Z,41.38
2023-03-05T00:04:42.404Z,36.95
2023-03-05T00:06:14.874Z,37.25
2023-03-05T00:07:48.977Z,32.65
2023-03-05T00:09:22.598Z,34.53
2023-03-05T00:10:59.726Z,27.02
2023-03-05T00:12:33.085Z,33.50
2023-03-05T00:14:07.161Z,35.75
2023-03-05T00:15:43.303Z,37.90
2023-03-05T00:17:16.533Z,34.42
2023-03-05T00:18:50.466Z,33.95
2023-03-05T00:20:25.065Z,34.15
2023-03-05T00:21:58.490Z,46.38
2023-03-05T00:23:30.889Z,42.75
2023-03-05T00:25:04.784Z,43.17
2023-03-05T00:26:40.196Z,37.60
2023-03-05T00:28:12.872Z,36.97
2023-03-05T00:29:46.183Z,38.92
2023-03-05T00:31:20.370Z,42.17
2023-03-05T00:32:54.042Z,41.35
2023-03-05T00:34:28.397Z,40.92
2023-03-05T00:36:07.229Z,38.50
2023-03-05T00:37:40.396Z,45.33
2023-03-05T00:39:14.661Z,51.15
2023-03-05T00:40:46.927Z,62.83
2023-03-05T00:42:20.143Z,51.30
2023-03-05T00:43:52.430Z,56.13
2023-03-05T00:45:25.671Z,46.47
2023-03-05T00:46:59.274Z,40.83
2023-03-05T00:48:31.614Z,56.90
2023-03-05T00:50:08.017Z,45.88
2023-03-05T00:51:41.802Z,48.65
2023-03-05T00:53:15.204Z,42.25
2023-03-05T00:54:48.371Z,45.25
2023-03-05T00:56:21.844Z,50.50
2023-03-05T00:57:54.177Z,49.50
2023-03-05T00:59:27.749Z,39.65
2023-03-05T01:01:02.949Z,45.53
2023-03-05T01:02:36.198Z,51.20
2023-03-05T01:04:09.783Z,45.83
2023-03-05T01:05:43.178Z,38.88
2023-03-05T01:07:17.897Z,32.92
2023-03-05T01:08:51.359Z,32.92
2023-03-05T01:10:26.603Z,30.08
2023-03-05T01:12:00.318Z,28.30
2023-03-05T01:13:33.508Z,27.67
2023-03-05T01:15:07.774Z,30.30
2023-03-05T01:16:41.094Z,27.45
2023-03-05T01:18:13.564Z,25.27
2023-03-05T01:19:46.684Z,26.63
2023-03-05T01:21:20.305Z,34.20
2023-03-05T01:22:55.187Z,34.22
2023-03-05T01:24:28.751Z,33.10
2023-03-05T01:26:01.886Z,26.85
2023-03-05T01:27:35.392Z,26.58
2023-03-05T01:29:08.714Z,24.25
2023-03-05T01:30:41.302Z,25.25
2023-03-05T01:32:14.678Z,29.05
2023-03-05T01:33:48.097Z,26.63
2023-03-05T01:35:24.358Z,27.45
2023-03-05T01:36:57.643Z,31.42
2023-03-05T01:38:31.300Z,39.00
2023-03-05T01:40:06.341Z,31.40
2023-03-05T01:41:39.871Z,37.47
2023-03-05T01:43:27.928Z,33.60
2023-03-05T01:45:03.941Z,33.05
2023-03-05T01:46:38.865Z,36.40
2023-03-05T01:48:11.192Z,36.75
2023-03-05T01:49:44.483Z,37.05
2023-03-05T01:51:17.580Z,34.45
2023-03-05T01:52:54.049Z,28.40
2023-03-05T01:54:34.007Z,32.95
2023-03-05T01:56:07.834Z,27.42
2023-03-05T01:57:45.360Z,25.90
2023-03-05T01:59:19.273Z,28.50
2023-03-05T02:00:55.405Z,29.45
2023-03-05T02:02:29.030Z,28.23
2023-03-05T02:04:02.564Z,28.35
2023-03-05T02:05:38.179Z,23.65
2023-03-05T02:07:13.041Z,28.83
2023-03-05T02:08:46.890Z,26.35
2023-03-05T02:10:23.777Z,31.63
2023-03-05T02:11:56.991Z,31.38
2023-03-05T02:13:34.164Z,24.45
2023-03-05T02:15:09.217Z,24.58
2023-03-05T02:16:43.074Z,30.13
2023-03-05T02:18:17.027Z,34.20
2023-03-05T02:19:52.504Z,44.28
2023-03-05T02:21:36.830Z,40.08
2023-03-05T02:23:10.238Z,40.95
2023-03-05T02:24:43.500Z,35.97
2023-03-05T02:26:15.742Z,31.83
2023-03-05T02:27:56.025Z,35.83
2023-03-05T02:29:30.636Z,36.17
2023-03-05T02:31:03.971Z,31.30
2023-03-05T02:32:37.224Z,33.85
2023-03-05T02:34:11.879Z,35.22
2023-03-05T02:35:46.589Z,27.38
2023-03-05T02:37:21.333Z,32.50
2023-03-05T02:38:59.204Z,31.77
2023-03-05T02:40:31.964Z,31.35
2023-03-05T02:42:05.386Z,26.50
2023-03-05T02:43:39.310Z,28.58
2023-03-05T02:45:14.153Z,28.48
2023-03-05T02:46:47.790Z,29.77
2023-03-05T02:48:20.082Z,25.10
2023-03-05T02:49:53.426Z,26.73
2023-03-05T02:51:26.620Z,29.10
2023-03-05T02:53:02.243Z,29.63
2023-03-05T02:54:35.991Z,30.77
2023-03-05T02:56:09.250Z,36.47
2023-03-05T02:57:42.602Z,32.50
2023-03-05T02:59:16.053Z,31.75
2023-03-05T03:00:49.395Z,26.08
2023-03-05T03:02:22.901Z,33.63
2023-03-05T03:03:55.081Z,32.92
2023-03-05T03:05:28.621Z,28.60
2023-03-05T03:07:01.748Z,28.05
2023-03-05T03:08:36.486Z,29.67
2023-03-05T03:10:09.900Z,29.52
2023-03-05T03:11:43.559Z,31.92
2023-03-05T03:13:15.636Z,32.55
2023-03-05T03:14:48.944Z,26.13
2023-03-05T03:16:22.236Z,25.27
2023-03-05T03:17:56.097Z,26.02
2023-03-05T03:19:29.372Z,23.42
2023-03-05T03:21:02.948Z,28.80
2023-03-05T03:22:36.188Z,26.73
2023-03-05T03:24:11.052Z,28.27
2023-03-05T03:25:43.354Z,29.85
2023-03-05T03:27:16.571Z,26.67
2023-03-05T03:28:49.700Z,31.42
2023-03-05T03:30:23.228Z,28.73
2023-03-05T03:31:55.478Z,29.60
2023-03-05T03:33:28.647Z,25.70
2023-03-05T03:35:01.293Z,32.20
2023-03-05T03:36:35.902Z,31.45
2023-03-05T03:38:08.179Z,29.90
2023-03-05T03:39:42.790Z,32.42
2023-03-05T03:41:18.944Z,30.92
2023-03-05T03:42:53.202Z,32.70
2023-03-05T03:44:26.386Z,37.28
2023-03-05T03:45:59.578Z,30.65
2023-03-05T03:47:32.947Z,32.33
2023-03-05T03:49:06.510Z,32.58
2023-03-05T03:50:39.478Z,35.00
2023-03-05T03:52:12.730Z,38.05
2023-03-05T03:53:46.023Z,42.17
2023-03-05T03:55:19.906Z,40.28
2023-03-05T03:56:53.768Z,49.72
2023-03-05T03:58:27.344Z,58.78
2023-03-05T04:00:00.953Z,42.22
2023-03-05T04:01:34.488Z,47.17
2023-03-05T04:03:07.148Z,46.95
2023-03-05T04:04:40.449Z,54.90
2023-03-05T04:06:13.772Z,57.25
2023-03-05T04:07:47.188Z,46.10
2023-03-05T04:09:19.285Z,46.15
2023-03-05T04:10:53.856Z,39.83
2023-03-05T04:12:26.306Z,50.00
2023-03-05T04:13:59.803Z,81.00
2023-03-05T04:15:32.141Z,70.82
2023-03-05T04:17:05.420Z,57.70
2023-03-05T04:18:38.566Z,41.63
2023-03-05T04:20:13.543Z,40.05
2023-03-05T04:21:46.707Z,43.97
2023-03-05T04:23:20.017Z,47.78
2023-03-05T04:24:53.182Z,34.60
2023-03-05T04:26:28.259Z,30.50
2023-03-05T04:28:01.473Z,28.92
2023-03-05T04:29:36.914Z,37.00
2023-03-05T04:31:10.116Z,35.90
2023-03-05T04:32:43.935Z,47.30
2023-03-05T04:34:17.204Z,49.88
2023-03-05T04:35:50.423Z,54.70
2023-03-05T04:37:22.857Z,66.38
2023-03-05T04:38:56.510Z,115.15
2023-03-05T04:40:28.885Z,85.80
2023-03-05T04:42:03.491Z,44.50
2023-03-05T04:43:36.651Z,61.08
2023-03-05T04:45:10.907Z,57.67
2023-03-05T04:46:44.267Z,69.60
2023-03-05T04:48:17.105Z,62.78
2023-03-05T04:49:50.166Z,80.72
2023-03-05T04:51:23.895Z,74.13
2023-03-05T04:52:57.323Z,70.90
2023-03-05T04:54:30.480Z,70.68
2023-03-05T04:56:03.672Z,73.38
2023-03-05T04:57:38.874Z,64.90
2023-03-05T04:59:12.310Z,66.43
2023-03-05T05:00:45.704Z,66.43
2023-03-05T05:02:17.877Z,73.30
2023-03-05T05:03:51.560Z,69.05
2023-03-05T05:05:26.779Z,75.07
2023-03-05T05:07:00.805Z,74.90
2023-03-05T05:08:34.292Z,80.88
2023-03-05T05:10:10.363Z,74.90
2023-03-05T05:11:43.484Z,80.18
2023-03-05T05:13:18.017Z,72.50
2023-03-05T05:14:51.161Z,70.97
2023-03-05T05:16:24.849Z,76.68
2023-03-05T05:17:57.979Z,75.13
2023-03-05T05:19:31.358Z,91.32
2023-03-05T05:21:09.265Z,101.63
2023-03-05T05:22:43.289Z,102.60
2023-03-05T05:24:16.428Z,105.78
2023-03-05T05:25:57.629Z,112.93
2023-03-05T05:27:30.878Z,91.93
2023-03-05T05:29:05.912Z,81.43
2023-03-05T05:30:39.720Z,89.53
2023-03-05T05:32:13.344Z,82.82
2023-03-05T05:33:49.597Z,62.17
2023-03-05T05:35:23.551Z,51.42
2023-03-05T05:36:56.807Z,50.90
2023-03-05T05:38:30.101Z,39.78
2023-03-05T05:40:04.390Z,41.92
2023-03-05T05:41:37.837Z,33.53
2023-03-05T05:43:10.462Z,35.67
2023-03-05T05:44:45.054Z,35.88
2023-03-05T05:46:20.652Z,39.38
2023-03-05T05:47:53.110Z,37.42
2023-03-05T05:49:26.691Z,35.75
2023-03-05T05:51:00.279Z,31.80
2023-03-05T05:52:33.443Z,33.67
2023-03-05T05:54:07.271Z,38.15
2023-03-05T05:55:41.463Z,46.47
2023-03-05T05:57:14.965Z,42.40
2023-03-05T05:58:49.472Z,66.13
2023-03-05T06:00:24.933Z,58.88
2023-03-05T06:01:58.221Z,54.67
2023-03-05T06:03:31.162Z,47.72
2023-03-05T06:05:04.424Z,48.83
2023-03-05T06:06:37.730Z,48.10
2023-03-05T06:08:11.205Z,52.15
2023-03-05T06:09:43.506Z,48.42
2023-03-05T06:11:19.251Z,53.80
2023-03-05T06:12:53.113Z,53.22
2023-03-05T06:14:26.341Z,51.78
2023-03-05T06:16:03.485Z,57.88
2023-03-05T06:17:36.953Z,51.55
2023-03-05T06:19:12.733Z,50.05
2023-03-05T06:20:44.932Z,52.15
2023-03-05T06:22:18.087Z,61.05
2023-03-05T06:23:52.526Z,60.28
2023-03-05T06:25:25.881Z,56.17
2023-03-05T06:26:59.154Z,49.38
2023-03-05T06:28:31.783Z,50.15
2023-03-05T06:30:05.612Z,47.83
2023-03-05T06:31:40.466Z,46.88
2023-03-05T06:33:12.924Z,70.18
2023-03-05T06:34:46.219Z,43.30
2023-03-05T06:36:21.436Z,52.25
2023-03-05T06:37:54.705Z,53.85
2023-03-05T06:39:27.879Z,55.15
2023-03-05T06:41:02.761Z,48.42
2023-03-05T06:42:36.152Z,47.00
2023-03-05T06:44:09.699Z,47.05
2023-03-05T06:45:41.894Z,55.70
2023-03-05T06:47:16.522Z,50.55
2023-03-05T06:48:50.642Z,46.78
2023-03-05T06:50:24.280Z,49.35
2023-03-05T06:51:56.512Z,41.85
2023-03-05T06:53:29.790Z,54.53
2023-03-05T06:55:03.007Z,51.25
2023-03-05T06:56:38.610Z,51.70
2023-03-05T06:58:11.928Z,40.35
2023-03-05T06:59:45.106Z,42.70
2023-03-05T07:01:18.354Z,41.67
2023-03-05T07:02:53.126Z,44.78
2023-03-05T07:04:26.343Z,51.80
2023-03-05T07:05:59.938Z,44.78
2023-03-05T07:07:34.098Z,47.67
2023-03-05T07:09:08.603Z,52.35
2023-03-05T07:10:43.034Z,55.80
2023-03-05T07:12:16.740Z,53.13
2023-03-05T07:13:50.826Z,48.63
2023-03-05T07:15:24.287Z,47.60
2023-03-05T07:16:56.506Z,48.40
2023-03-05T07:18:31.211Z,51.35
2023-03-05T07:20:04.962Z,48.00
2023-03-05T07:21:39.971Z,44.70
2023-03-05T07:23:13.383Z,54.80
2023-03-05T07:24:46.514Z,46.17
2023-03-05T07:26:19.710Z,89.03
2023-03-05T07:27:53.003Z,78.32
2023-03-05T07:29:27.623Z,69.00
2023-03-05T07:31:02.746Z,66.43
2023-03-05T07:32:37.087Z,61.60
2023-03-05T07:34:12.529Z,53.22
2023-03-05T07:35:45.730Z,50.67
2023-03-05T07:37:19.175Z,45.58
2023-03-05T07:38:52.287Z,40.83
2023-03-05T07:40:25.791Z,39.83
2023-03-05T07:41:59.311Z,35.70
2023-03-05T07:43:37.698Z,33.45
2023-03-05T07:45:11.963Z,39.55
2023-03-05T07:46:45.951Z,40.78
2023-03-05T07:48:21.511Z,36.97
2023-03-05T07:49:56.376Z,39.08
2023-03-05T07:51:30.166Z,35.22
2023-03-05T07:53:03.527Z,42.75
2023-03-05T07:54:39.877Z,38.60
2023-03-05T07:56:13.160Z,42.22
2023-03-05T07:57:46.323Z,31.98
2023-03-05T07:59:19.650Z,36.03
2023-03-05T08:00:53.238Z,38.00
2023-03-05T08:02:26.586Z,40.15
2023-03-05T08:04:03.111Z,39.92
2023-03-05T08:05:43.342Z,35.13
2023-03-05T08:07:17.267Z,76.65
2023-03-05T08:08:50.523Z,42.83
2023-03-05T08:10:23.643Z,33.47
2023-03-05T08:11:57.284Z,36.75
2023-03-05T08:13:30.656Z,38.90
2023-03-05T08:15:03.883Z,35.75
2023-03-05T08:16:37.190Z,41.53
2023-03-05T08:18:10.967Z,34.72
2023-03-05T08:19:44.565Z,33.83
2023-03-05T08:21:21.237Z,37.63
2023-03-05T08:22:54.609Z,37.38
2023-03-05T08:24:29.908Z,36.13
2023-03-05T08:26:03.059Z,41.00
2023-03-05T08:27:40.423Z,37.13
2023-03-05T08:29:13.857Z,45.45
2023-03-05T08:30:47.619Z,37.60
2023-03-05T08:32:20.836Z,36.10
2023-03-05T08:33:56.028Z,33.08
2023-03-05T08:35:29.275Z,38.75
2023-03-05T08:37:04.577Z,35.78
2023-03-05T08:38:37.946Z,33.85
2023-03-05T08:40:12.651Z,37.60
2023-03-05T08:41:45.866Z,33.83
2023-03-05T08:43:19.305Z,31.95
2023-03-05T08:44:52.729Z,30.42
2023-03-05T08:46:26.297Z,33.15
2023-03-05T08:47:59.422Z,41.72
2023-03-05T08:49:32.861Z,40.30
2023-03-05T08:51:07.261Z,40.13
2023-03-05T08:52:41.825Z,36.08
2023-03-05T08:54:15.031Z,34.88
2023-03-05T08:55:55.521Z,33.97
2023-03-05T08:57:28.723Z,32.30
2023-03-05T08:59:01.894Z,34.88
2023-03-05T09:00:35.033Z,28.73
2023-03-05T09:02:08.737Z,33.13
2023-03-05T09:03:42.325Z,35.35
2023-03-05T09:05:15.529Z,32.88
2023-03-05T09:06:48.726Z,32.30
2023-03-05T09:08:23.665Z,35.13
2023-03-05T09:09:56.842Z,29.13
2023-03-05T09:11:30.021Z,34.65
2023-03-05T09:13:04.203Z,31.50
2023-03-05T09:14:37.641Z,28.27
2023-03-05T09:16:13.699Z,29.45
2023-03-05T09:17:47.207Z,30.02
2023-03-05T09:19:20.299Z,27.33
2023-03-05T09:20:55.664Z,28.42
2023-03-05T09:22:30.510Z,27.17
2023-03-05T09:24:05.448Z,28.40
2023-03-05T09:25:40.825Z,28.80
2023-03-05T09:27:14.281Z,30.42
2023-03-05T09:28:48.515Z,31.92
2023-03-05T09:30:22.329Z,26.88
2023-03-05T09:31:55.750Z,33.33
2023-03-05T09:33:29.198Z,33.08
2023-03-05T09:35:02.741Z,31.40
2023-03-05T09:36:36.264Z,28.95
2023-03-05T09:38:10.885Z,29.77
2023-03-05T09:39:45.803Z,31.25
2023-03-05T09:41:31.293Z,32.10
2023-03-05T09:43:13.028Z,34.15
2023-03-05T09:44:56.754Z,33.65
2023-03-05T09:46:41.999Z,29.52
2023-03-05T09:48:20.555Z,30.63
2023-03-05T09:50:02.485Z,35.92
2023-03-05T09:51:40.448Z,31.98
2023-03-05T09:53:33.197Z,27.73
2023-03-05T09:55:14.701Z,29.92
2023-03-05T09:56:51.583Z,31.92
2023-03-05T09:58:35.853Z,81.63
2023-03-05T10:00:22.848Z,36.50
2023-03-05T10:01:59.165Z,31.13
2023-03-05T10:03:45.784Z,31.75
2023-03-05T10:05:24.121Z,25.02
2023-03-05T10:07:01.683Z,29.35
2023-03-05T10:08:47.412Z,28.00
2023-03-05T10:10:27.066Z,27.65
2023-03-05T10:12:04.522Z,28.02
2023-03-05T10:13:40.542Z,28.80
2023-03-05T10:15:16.314Z,28.67
2023-03-05T10:17:02.129Z,27.63
2023-03-05T10:18:42.580Z,25.15
2023-03-05T10:20:42.551Z,24.20
2023-03-05T10:22:21.750Z,26.30
2023-03-05T10:24:12.092Z,29.17
2023-03-05T10:25:58.202Z,26.30
2023-03-05T10:27:44.048Z,27.83
2023-03-05T10:29:37.500Z,34.63
2023-03-05T10:31:26.173Z,25.70
2023-03-05T10:33:13.404Z,23.88
2023-03-05T10:35:20.857Z,23.23
2023-03-05T10:37:13.073Z,23.83
2023-03-05T10:39:01.311Z,24.30
2023-03-05T10:40:39.958Z,25.50
2023-03-05T10:42:24.748Z,27.33
2023-03-05T10:44:02.898Z,25.83
2023-03-05T10:45:40.815Z,24.40
2023-03-05T10:47:20.891Z,25.30
2023-03-05T10:48:59.301Z,26.83
2023-03-05T10:50:38.115Z,19.98
2023-03-05T10:52:18.467Z,43.05
2023-03-05T10:53:57.571Z,24.05
2023-03-05T10:55:30.713Z,27.83
2023-03-05T10:57:06.045Z,24.20
2023-03-05T10:58:40.655Z,23.25
2023-03-05T11:00:20.949Z,25.45
2023-03-05T11:02:05.338Z,23.55
2023-03-05T11:03:51.869Z,23.95
2023-03-05T11:05:46.497Z,24.58
2023-03-05T11:07:39.006Z,19.77
2023-03-05T11:09:28.308Z,25.48
2023-03-05T11:11:16.592Z,25.10
2023-03-05T11:12:50.111Z,23.38
2023-03-05T11:14:33.188Z,22.98
2023-03-05T11:16:08.969Z,23.48
2023-03-05T11:17:44.720Z,21.65
2023-03-05T11:19:21.828Z,17.98
2023-03-05T11:21:09.414Z,20.42
2023-03-05T11:22:42.534Z,20.50
2023-03-05T11:24:18.296Z,21.02
2023-03-05T11:25:58.278Z,22.08
2023-03-05T11:27:36.665Z,19.48
2023-03-05T11:29:19.573Z,22.10
2023-03-05T11:31:00.609Z,21.60
2023-03-05T11:32:34.306Z,18.58
2023-03-05T11:34:09.381Z,24.13
2023-03-05T11:35:44.493Z,19.02
2023-03-05T11:37:25.401Z,19.85
2023-03-05T11:39:00.822Z,17.48
2023-03-05T11:40:37.094Z,18.08
2023-03-05T11:42:15.296Z,19.70
2023-03-05T11:43:52.164Z,19.75
2023-03-05T11:45:27.680Z,16.20
2023-03-05T11:47:06.228Z,19.08
2023-03-05T11:48:41.960Z,17.42
2023-03-05T11:50:22.303Z,17.15
2023-03-05T11:52:01.909Z,14.73
2023-03-05T11:53:37.086Z,9.60
2023-03-05T11:55:16.307Z,16.15
2023-03-05T11:56:50.271Z,12.57
2023-03-05T11:58:30.496Z,19.42
2023-03-05T12:00:11.623Z,16.90
2023-03-05T12:01:48.084Z,15.90
2023-03-05T12:03:26.411Z,21.27
2023-03-05T12:05:03.351Z,18.42
2023-03-05T12:06:41.053Z,14.70
2023-03-05T12:08:17.056Z,21.95
2023-03-05T12:09:52.212Z,12.35
2023-03-05T12:11:29.071Z,16.45
2023-03-05T12:13:07.995Z,16.27
2023-03-05T12:14:46.602Z,19.30
2023-03-05T12:16:29.385Z,22.05
2023-03-05T12:18:15.128Z,20.80
2023-03-05T12:19:58.396Z,20.17
2023-03-05T12:21:37.083Z,17.63
2023-03-05T12:23:15.203Z,10.75
2023-03-05T12:24:48.546Z,17.25
2023-03-05T12:26:59.800Z,21.70
2023-03-05T12:28:58.590Z,11.45
2023-03-05T12:30:59.145Z,21.00
2023-03-05T12:33:02.695Z,17.75
2023-03-05T12:34:51.586Z,20.90
2023-03-05T12:36:36.825Z,19.15
2023-03-05T12:38:31.751Z,20.70
2023-03-05T12:40:21.699Z,14.90
2023-03-05T12:41:56.697Z,14.60
2023-03-05T12:43:32.245Z,16.25
2023-03-05T12:45:25.966Z,15.60
2023-03-05T12:47:23.931Z,19.30
2023-03-05T12:48:57.510Z,11.77
2023-03-05T12:50:52.686Z,15.40
2023-03-05T12:52:29.563Z,11.30
2023-03-05T12:54:30.016Z,17.42
2023-03-05T12:56:12.849Z,18.83
2023-03-05T12:57:47.726Z,17.27
2023-03-05T12:59:24.526Z,16.27
2023-03-05T13:01:05.545Z,19.45
2023-03-05T13:02:42.304Z,14.27
2023-03-05T13:04:20.115Z,16.63
2023-03-05T13:05:57.366Z,17.42
2023-03-05T13:07:30.522Z,17.30
2023-03-05T13:09:08.438Z,17.08
2023-03-05T13:10:42.305Z,19.45
2023-03-05T13:12:16.150Z,18.15
2023-03-05T13:13:50.488Z,20.13
2023-03-05T13:15:25.467Z,15.60
2023-03-05T13:16:59.238Z,21.02
2023-03-05T13:18:34.077Z,20.73
2023-03-05T13:20:30.128Z,19.80
2023-03-05T13:22:11.197Z,13.80
2023-03-05T13:23:49.309Z,18.90
2023-03-05T13:25:22.761Z,20.00
2023-03-05T13:26:56.879Z,13.52
2023-03-05T13:28:31.374Z,19.60
2023-03-05T13:30:05.122Z,25.80
2023-03-05T13:31:43.172Z,16.23
2023-03-05T13:33:20.594Z,23.33
2023-03-05T13:34:56.387Z,20.25
2023-03-05T13:36:29.741Z,36.70
2023-03-05T13:38:04.508Z,12.57
2023-03-05T13:39:44.382Z,19.10
2023-03-05T13:41:23.954Z,27.30
2023-03-05T13:43:12.047Z,24.85
2023-03-05T13:44:45.471Z,24.70
2023-03-05T13:46:27.151Z,25.73
2023-03-05T13:48:03.056Z,22.85
2023-03-05T13:49:36.457Z,26.08
2023-03-05T13:51:11.973Z,19.70
2023-03-05T13:52:45.425Z,22.52
2023-03-05T13:54:21.707Z,18.40
2023-03-05T13:55:57.922Z,16.83
2023-03-05T13:57:37.197Z,23.95
2023-03-05T13:59:18.962Z,19.05
2023-03-05T14:01:04.605Z,33.72
2023-03-05T14:02:38.097Z,25.65
2023-03-05T14:04:22.021Z,20.38
2023-03-05T14:05:55.843Z,21.85
2023-03-05T14:07:34.653Z,19.35
2023-03-05T14:09:09.873Z,21.77
2023-03-05T14:10:45.479Z,16.95
2023-03-05T14:12:30.444Z,19.67
2023-03-05T14:14:10.895Z,20.88
2023-03-05T14:16:04.223Z,17.65
2023-03-05T14:17:42.822Z,14.10
2023-03-05T14:19:34.867Z,18.23
2023-03-05T14:21:10.307Z,16.88
2023-03-05T14:22:46.144Z,19.95
2023-03-05T14:24:23.844Z,11.80
2023-03-05T14:26:19.216Z,20.17
2023-03-05T14:27:53.203Z,13.90
2023-03-05T14:29:29.271Z,18.23
2023-03-05T14:31:02.568Z,12.00
2023-03-05T14:32:38.622Z,20.58
2023-03-05T14:34:22.096Z,18.48
2023-03-05T14:35:57.807Z,19.75
2023-03-05T14:37:35.552Z,19.33
2023-03-05T14:39:09.322Z,28.17
2023-03-05T14:40:42.657Z,18.13
2023-03-05T14:42:33.489Z,18.35
2023-03-05T14:44:15.745Z,12.23
2023-03-05T14:45:49.392Z,11.52
2023-03-05T14:47:22.524Z,15.10
2023-03-05T14:48:55.769Z,16.23
2023-03-05T14:50:31.115Z,15.25
2023-03-05T14:52:06.762Z,19.15
2023-03-05T14:53:46.917Z,19.50
2023-03-05T14:55:22.938Z,15.82
2023-03-05T14:56:56.383Z,20.13
2023-03-05T14:58:35.533Z,14.27
2023-03-05T15:00:18.014Z,22.52
2023-03-05T15:01:51.508Z,18.48
2023-03-05T15:03:25.803Z,16.42
2023-03-05T15:04:59.558Z,24.13
2023-03-05T15:06:36.749Z,32.30
2023-03-05T15:08:16.021Z,16.77
2023-03-05T15:09:49.576Z,25.75
2023-03-05T15:11:23.289Z,17.60
2023-03-05T15:12:56.513Z,20.75
2023-03-05T15:14:31.377Z,27.25
2023-03-05T15:16:06.683Z,27.25
2023-03-05T15:17:43.595Z,19.65
2023-03-05T15:19:20.553Z,26.15
2023-03-05T15:20:54.896Z,16.02
2023-03-05T15:22:28.498Z,19.17
2023-03-05T15:24:01.800Z,21.50
2023-03-05T15:25:35.284Z,19.02
2023-03-05T15:27:08.470Z,22.45
2023-03-05T15:28:43.131Z,19.77
2023-03-05T15:30:23.343Z,19.40
2023-03-05T15:31:56.485Z,23.63
2023-03-05T15:33:30.486Z,21.10
2023-03-05T15:35:03.859Z,19.60
2023-03-05T15:36:37.009Z,17.00
2023-03-05T15:38:10.256Z,19.27
2023-03-05T15:39:43.628Z,17.20
2023-03-05T15:41:17.935Z,21.83
2023-03-05T15:42:52.158Z,19.40
2023-03-05T15:44:25.518Z,17.65
2023-03-05T15:46:00.254Z,29.77
2023-03-05T15:47:33.947Z,16.38
2023-03-05T15:49:07.424Z,21.02
2023-03-05T15:50:43.040Z,21.83
2023-03-05T15:52:16.607Z,24.20
2023-03-05T15:53:50.063Z,25.35
2023-03-05T15:55:23.507Z,33.63
2023-03-05T15:56:56.640Z,35.42
2023-03-05T15:58:29.786Z,31.08
2023-03-05T16:00:03.388Z,42.20
2023-03-05T16:01:49.065Z,28.58
2023-03-05T16:03:23.181Z,25.67
2023-03-05T16:04:56.779Z,32.33
2023-03-05T16:06:31.097Z,26.25
2023-03-05T16:08:04.671Z,23.70
2023-03-05T16:09:40.455Z,25.90
2023-03-05T16:11:17.442Z,21.83
2023-03-05T16:12:54.659Z,38.28
2023-03-05T16:14:30.016Z,35.28
2023-03-05T16:16:05.965Z,30.20
2023-03-05T16:17:53.870Z,29.67
2023-03-05T16:19:29.531Z,29.33
2023-03-05T16:21:03.187Z,32.60
2023-03-05T16:22:36.490Z,30.60
2023-03-05T16:24:09.931Z,33.33
2023-03-05T16:25:43.429Z,37.13
2023-03-05T16:27:17.718Z,26.75
2023-03-05T16:28:50.997Z,21.92
2023-03-05T16:30:24.744Z,20.23
2023-03-05T16:31:58.316Z,21.40
2023-03-05T16:33:35.239Z,13.52
2023-03-05T16:35:11.993Z,13.98
2023-03-05T16:36:50.861Z,15.27
2023-03-05T16:38:24.048Z,16.85
2023-03-05T16:40:00.181Z,19.23
2023-03-05T16:41:33.735Z,18.40
2023-03-05T16:43:07.293Z,22.70
2023-03-05T16:44:40.877Z,25.30
2023-03-05T16:46:15.522Z,14.85
2023-03-05T16:47:48.694Z,19.90
2023-03-05T16:49:24.231Z,18.55
2023-03-05T16:50:57.957Z,16.08
2023-03-05T16:52:31.823Z,22.27
2023-03-05T16:54:05.426Z,11.38
2023-03-05T16:55:39.251Z,16.70
2023-03-05T16:57:12.729Z,26.90
2023-03-05T16:58:45.978Z,22.30
2023-03-05T17:00:22.085Z,20.30
2023-03-05T17:01:55.556Z,28.08
2023-03-05T17:03:30.155Z,27.88
2023-03-05T17:05:05.230Z,22.88
2023-03-05T17:06:39.054Z,17.85
2023-03-05T17:08:12.326Z,13.15
2023-03-05T17:09:46.623Z,29.40
2023-03-05T17:11:20.865Z,28.63
2023-03-05T17:12:54.688Z,36.78
2023-03-05T17:14:28.156Z,25.20
2023-03-05T17:16:01.390Z,24.48
2023-03-05T17:17:34.987Z,22.13
2023-03-05T17:19:08.289Z,38.35
2023-03-05T17:20:43.180Z,32.30
2023-03-05T17:22:16.695Z,32.30
2023-03-05T17:23:50.339Z,28.45
2023-03-05T17:25:23.624Z,34.13
2023-03-05T17:26:57.292Z,31.92
2023-03-05T17:28:30.396Z,34.88
2023-03-05T17:30:04.014Z,58.17
2023-03-05T17:31:37.375Z,44.17
2023-03-05T17:33:11.432Z,40.85
2023-03-05T17:34:44.834Z,34.58
2023-03-05T17:36:21.719Z,33.15
2023-03-05T17:37:55.426Z,32.42
2023-03-05T17:39:28.834Z,30.98
2023-03-05T17:41:03.616Z,19.88
2023-03-05T17:42:38.546Z,33.20
2023-03-05T17:44:12.689Z,48.95
2023-03-05T17:45:47.407Z,35.35
2023-03-05T17:47:26.613Z,35.85
2023-03-05T17:49:01.554Z,23.95
2023-03-05T17:50:36.409Z,24.65
2023-03-05T17:52:12.185Z,23.80
2023-03-05T17:53:48.016Z,24.52
2023-03-05T17:55:29.121Z,14.25
2023-03-05T17:57:03.543Z,15.98
2023-03-05T17:58:39.717Z,14.15
2023-03-05T18:00:18.138Z,7.97
2023-03-05T18:01:51.845Z,18.67
2023-03-05T18:03:26.897Z,10.98
2023-03-05T18:05:22.901Z,19.65
2023-03-05T18:06:57.961Z,17.17
2023-03-05T18:08:33.426Z,16.77
2023-03-05T18:10:09.284Z,18.33
2023-03-05T18:11:42.515Z,26.27
2023-03-05T18:13:16.616Z,22.77
2023-03-05T18:14:51.133Z,24.77
2023-03-05T18:16:25.638Z,20.88
2023-03-05T18:17:59.685Z,19.95
2023-03-05T18:19:33.071Z,21.33
2023-03-05T18:21:08.044Z,17.63
2023-03-05T18:22:41.903Z,21.17
2023-03-05T18:24:18.806Z,16.35
2023-03-05T18:25:52.395Z,20.98
2023-03-05T18:27:25.812Z,17.90
2023-03-05T18:29:00.606Z,20.48
2023-03-05T18:30:34.837Z,23.55
2023-03-05T18:32:09.842Z,18.55
2023-03-05T18:33:44.918Z,17.95
2023-03-05T18:35:19.023Z,19.52
2023-03-05T18:36:52.502Z,20.10
2023-03-05T18:38:27.890Z,24.13
2023-03-05T18:40:03.277Z,17.30
2023-03-05T18:41:37.374Z,21.08
2023-03-05T18:43:11.404Z,18.40
2023-03-05T18:44:44.675Z,19.17
2023-03-05T18:46:18.204Z,16.25
2023-03-05T18:47:54.438Z,17.42
2023-03-05T18:49:29.119Z,22.15
2023-03-05T18:51:02.532Z,18.63
2023-03-05T18:52:35.693Z,17.48
2023-03-05T18:54:09.654Z,13.55
2023-03-05T18:55:45.179Z,21.67
2023-03-05T18:57:18.514Z,21.23
2023-03-05T18:58:51.998Z,25.98
2023-03-05T19:00:27.772Z,9.95
2023-03-05T19:02:00.965Z,7.78
2023-03-05T19:03:35.049Z,19.27
2023-03-05T19:05:08.832Z,14.57
2023-03-05T19:06:42.162Z,20.13
2023-03-05T19:08:15.427Z,17.42
2023-03-05T19:09:58.931Z,16.20
2023-03-05T19:11:34.158Z,16.90
2023-03-05T19:13:40.012Z,16.65
2023-03-05T19:15:14.722Z,14.32
2023-03-05T19:16:48.331Z,14.75
2023-03-05T19:18:55.656Z,18.75
2023-03-05T19:20:32.325Z,19.83
2023-03-05T19:22:05.525Z,21.98
2023-03-05T19:23:38.771Z,20.02
2023-03-05T19:25:13.164Z,18.92
2023-03-05T19:26:48.673Z,22.13
2023-03-05T19:28:22.375Z,18.27
2023-03-05T19:29:55.706Z,26.55
2023-03-05T19:31:29.018Z,23.95
2023-03-05T19:33:03.757Z,40.20
2023-03-05T19:34:37.552Z,34.10
2023-03-05T19:36:12.245Z,29.60
2023-03-05T19:37:46.311Z,28.90
2023-03-05T19:39:20.338Z,28.13
2023-03-05T19:40:53.562Z,26.38
2023-03-05T19:42:28.439Z,21.48
2023-03-05T19:44:02.030Z,18.25
2023-03-05T19:45:35.743Z,20.48
2023-03-05T19:47:11.512Z,20.92
2023-03-05T19:48:45.154Z,19.52
2023-03-05T19:50:18.506Z,27.80
2023-03-05T19:51:53.415Z,23.02
2023-03-05T19:53:26.872Z,21.83
2023-03-05T19:55:00.912Z,20.73
2023-03-05T19:56:34.338Z,23.45
2023-03-05T19:58:09.146Z,22.65
2023-03-05T19:59:44.143Z,19.23
2023-03-05T20:01:19.715Z,18.70
2023-03-05T20:02:52.867Z,20.70
2023-03-05T20:04:28.151Z,21.08
2023-03-05T20:06:01.493Z,18.75
2023-03-05T20:07:34.655Z,21.77
2023-03-05T20:09:08.225Z,17.63
2023-03-05T20:10:41.922Z,20.77
2023-03-05T20:12:15.152Z,28.65
2023-03-05T20:13:50.026Z,45.30
2023-03-05T20:15:23.626Z,20.85
2023-03-05T20:16:57.038Z,23.88
2023-03-05T20:18:30.303Z,23.75
2023-03-05T20:20:03.442Z,21.60
2023-03-05T20:21:39.749Z,17.55
2023-03-05T20:23:13.733Z,18.08
2023-03-05T20:24:47.387Z,14.07
2023-03-05T20:26:21.023Z,19.35
2023-03-05T20:27:54.171Z,19.65
2023-03-05T20:29:29.410Z,18.92
2023-03-05T20:31:03.537Z,17.67
2023-03-05T20:32:36.757Z,16.13
2023-03-05T20:34:12.290Z,17.98